createdAt,value
2023-03-27T00:00:16.277Z,8.50
2023-03-27T00:02:46.937Z,8.60
2023-03-27T00:05:16.327Z,8.50
2023-03-27T00:07:44.727Z,8.60
2023-03-27T00:10:13.426Z,8.60
2023-03-27T00:12:44.296Z,8.60
2023-03-27T00:15:17.112Z,8.60
2023-03-27T00:17:47.856Z,8.60
2023-03-27T00:20:16.453Z,8.60
2023-03-27T00:22:45.115Z,8.50
2023-03-27T00:25:13.489Z,8.50
2023-03-27T00:27:43.426Z,8.50
2023-03-27T00:30:12.902Z,8.50
2023-03-27T00:32:41.232Z,8.50
2023-03-27T00:35:10.741Z,8.50
2023-03-27T00:37:40.051Z,8.70
2023-03-27T00:40:13.632Z,8.40
2023-03-27T00:42:43.556Z,8.40
2023-03-27T00:45:18.592Z,8.30
2023-03-27T00:47:49.320Z,8.30
2023-03-27T00:50:21.358Z,8.30
2023-03-27T00:52:54.089Z,8.30
2023-03-27T00:55:23.955Z,8.30
2023-03-27T00:58:02.399Z,8.30
2023-03-27T01:00:32.383Z,8.30
2023-03-27T01:03:02.849Z,8.20
2023-03-27T01:05:31.748Z,8.20
2023-03-27T01:08:01.903Z,8.20
2023-03-27T01:10:41.773Z,8.20
2023-03-27T01:13:27.956Z,8.10
2023-03-27T01:16:02.932Z,8.10
2023-03-27T01:18:41.696Z,8.00
2023-03-27T01:21:41.316Z,8.00
2023-03-27T01:24:45.906Z,8.00
2023-03-27T01:27:19.679Z,7.90
2023-03-27T01:30:04.966Z,7.90
2023-03-27T01:33:12.313Z,7.90
2023-03-27T01:36:11.306Z,7.90
2023-03-27T01:39:05.310Z,7.80
2023-03-27T01:41:39.823Z,7.80
2023-03-27T01:44:16.671Z,7.80
2023-03-27T01:46:50.227Z,7.80
2023-03-27T01:49:22.527Z,7.70
2023-03-27T01:51:56.235Z,7.70
2023-03-27T01:54:29.426Z,7.60
2023-03-27T01:57:05.665Z,7.60
2023-03-27T01:59:39.539Z,7.60
2023-03-27T02:02:14.307Z,7.60
2023-03-27T02:04:47.972Z,7.60
2023-03-27T02:07:27.265Z,7.50
2023-03-27T02:10:01.063Z,7.50
2023-03-27T02:12:35.987Z,7.50
2023-03-27T02:15:23.435Z,7.50
2023-03-27T02:18:04.848Z,7.50
2023-03-27T02:20:34.626Z,7.50
2023-03-27T02:23:03.319Z,7.50
2023-03-27T02:25:34.279Z,7.40
2023-03-27T02:28:31.478Z,7.40
2023-03-27T02:31:33.450Z,7.40
2023-03-27T02:34:33.809Z,7.40
2023-03-27T02:37:16.144Z,7.40
2023-03-27T02:40:15.180Z,7.40
2023-03-27T02:42:54.282Z,7.30
2023-03-27T02:45:31.654Z,7.40
2023-03-27T02:48:05.608Z,7.40
2023-03-27T02:50:40.128Z,7.30
2023-03-27T02:53:16.971Z,7.30
2023-03-27T02:55:50.689Z,7.30
2023-03-27T02:58:23.242Z,7.30
2023-03-27T03:01:10.723Z,7.30
2023-03-27T03:04:17.852Z,7.30
2023-03-27T03:07:06.484Z,7.30
2023-03-27T03:09:40.716Z,7.30
2023-03-27T03:12:10.724Z,7.30
2023-03-27T03:14:45.500Z,7.30
2023-03-27T03:17:16.884Z,7.30
2023-03-27T03:19:46.829Z,7.30
2023-03-27T03:22:15.887Z,7.30
2023-03-27T03:24:44.303Z,7.30
2023-03-27T03:27:20.908Z,7.30
2023-03-27T03:30:08.207Z,7.30
2023-03-27T03:32:47.435Z,7.30
2023-03-27T03:35:16.300Z,7.30
2023-03-27T03:37:50.760Z,7.30
2023-03-27T03:40:21.230Z,7.30
2023-03-27T03:42:53.297Z,7.20
2023-03-27T03:45:26.066Z,7.20
2023-03-27T03:47:56.891Z,7.20
2023-03-27T03:50:26.117Z,7.20
2023-03-27T03:52:54.799Z,7.20
2023-03-27T03:55:25.731Z,7.10
2023-03-27T03:57:54.393Z,7.10
2023-03-27T04:00:28.516Z,7.10
2023-03-27T04:03:00.691Z,7.10
2023-03-27T04:05:30.728Z,7.10
2023-03-27T04:08:00.525Z,7.10
2023-03-27T04:10:29.814Z,7.10
2023-03-27T04:12:59.887Z,7.10
2023-03-27T04:15:56.692Z,7.10
2023-03-27T04:18:34.436Z,7.10
2023-03-27T04:21:15.247Z,7.10
2023-03-27T04:23:45.468Z,7.10
2023-03-27T04:26:17.089Z,7.40
2023-03-27T04:29:10.388Z,7.10
2023-03-27T04:32:09.550Z,7.10
2023-03-27T04:34:42.122Z,7.10
2023-03-27T04:37:50.383Z,7.00
2023-03-27T04:40:52.437Z,7.00
2023-03-27T04:43:26.056Z,6.90
2023-03-27T04:45:55.534Z,7.00
2023-03-27T04:48:24.169Z,7.00
2023-03-27T04:50:58.464Z,7.10
2023-03-27T04:53:38.015Z,7.00
2023-03-27T04:56:09.608Z,7.10
2023-03-27T04:58:41.686Z,7.30
2023-03-27T05:01:15.786Z,7.10
2023-03-27T05:04:19.575Z,7.10
2023-03-27T05:07:05.891Z,7.10
2023-03-27T05:09:34.246Z,7.10
2023-03-27T05:12:02.542Z,7.10
2023-03-27T05:14:35.540Z,7.10
2023-03-27T05:17:04.146Z,7.10
2023-03-27T05:19:32.619Z,7.40
2023-03-27T05:22:04.958Z,7.10
2023-03-27T05:24:33.512Z,7.10
2023-03-27T05:27:01.828Z,7.10
2023-03-27T05:29:30.691Z,7.10
2023-03-27T05:32:15.903Z,7.10
2023-03-27T05:34:51.853Z,7.10
2023-03-27T05:37:22.853Z,7.10
2023-03-27T05:40:30.048Z,7.00
2023-03-27T05:42:58.830Z,7.10
2023-03-27T05:45:32.490Z,7.00
2023-03-27T05:48:03.247Z,7.00
2023-03-27T05:50:37.367Z,7.00
2023-03-27T05:53:11.575Z,7.00
2023-03-27T05:55:50.871Z,7.00
2023-03-27T05:58:38.771Z,6.90
2023-03-27T06:01:07.989Z,6.90
2023-03-27T06:03:38.515Z,6.90
2023-03-27T06:06:14.493Z,6.90
2023-03-27T06:08:48.496Z,6.80
2023-03-27T06:11:16.849Z,6.70
2023-03-27T06:13:49.513Z,6.70
2023-03-27T06:16:22.322Z,6.70
2023-03-27T06:19:13.096Z,6.70
2023-03-27T06:21:49.729Z,6.70
2023-03-27T06:24:19.420Z,6.70
2023-03-27T06:26:47.799Z,6.90
2023-03-27T06:29:16.361Z,6.70
2023-03-27T06:31:49.692Z,6.70
2023-03-27T06:34:23.432Z,6.70
2023-03-27T06:37:03.616Z,6.70
2023-03-27T06:39:39.549Z,6.80
2023-03-27T06:42:08.370Z,7.00
2023-03-27T06:44:46.105Z,6.80
2023-03-27T06:47:44.397Z,6.80
2023-03-27T06:50:40.965Z,6.90
2023-03-27T06:53:19.641Z,6.90
2023-03-27T06:55:53.679Z,6.90
2023-03-27T06:58:22.741Z,6.90
2023-03-27T07:00:51.647Z,6.90
2023-03-27T07:03:21.750Z,6.90
2023-03-27T07:06:00.438Z,6.90
2023-03-27T07:08:34.785Z,6.80
2023-03-27T07:11:11.611Z,6.70
2023-03-27T07:13:46.164Z,6.70
2023-03-27T07:16:22.910Z,6.70
2023-03-27T07:18:51.318Z,6.70
2023-03-27T07:21:19.813Z,6.60
2023-03-27T07:23:48.256Z,6.60
2023-03-27T07:26:23.013Z,6.60
2023-03-27T07:29:03.150Z,6.60
2023-03-27T07:31:51.661Z,6.60
2023-03-27T07:34:20.902Z,6.60
2023-03-27T07:37:07.987Z,6.60
2023-03-27T07:39:39.223Z,6.60
2023-03-27T07:42:09.372Z,6.70
2023-03-27T07:44:54.637Z,6.70
2023-03-27T07:47:23.815Z,6.70
2023-03-27T07:49:52.471Z,6.80
2023-03-27T07:52:24.269Z,6.80
2023-03-27T07:54:59.081Z,6.90
2023-03-27T07:57:55.011Z,6.90
2023-03-27T08:00:29.668Z,6.90
2023-03-27T08:03:10.034Z,6.90
2023-03-27T08:05:43.637Z,6.80
2023-03-27T08:08:14.842Z,6.90
2023-03-27T08:10:52.076Z,6.80
2023-03-27T08:13:21.915Z,6.90
2023-03-27T08:15:50.443Z,6.90
2023-03-27T08:18:27.180Z,6.90
2023-03-27T08:20:57.248Z,6.80
2023-03-27T08:23:27.212Z,6.80
2023-03-27T08:26:18.167Z,6.90
2023-03-27T08:28:56.149Z,6.90
2023-03-27T08:31:29.358Z,7.00
2023-03-27T08:34:01.218Z,6.90
2023-03-27T08:36:41.566Z,6.90
2023-03-27T08:39:11.168Z,6.90
2023-03-27T08:41:56.192Z,6.80
2023-03-27T08:44:34.047Z,6.90
2023-03-27T08:47:14.462Z,6.90
2023-03-27T08:50:07.253Z,6.90
2023-03-27T08:52:51.245Z,6.90
2023-03-27T08:55:39.650Z,6.90
2023-03-27T08:58:33.121Z,6.90
2023-03-27T09:01:22.290Z,6.90
2023-03-27T09:03:57.320Z,6.90
2023-03-27T09:06:30.138Z,7.00
2023-03-27T09:09:08.648Z,7.00
2023-03-27T09:11:49.103Z,7.00
2023-03-27T09:14:28.445Z,7.10
2023-03-27T09:17:04.760Z,7.10
2023-03-27T09:19:44.240Z,7.00
2023-03-27T09:22:21.397Z,7.00
2023-03-27T09:25:16.911Z,7.10
2023-03-27T09:28:03.479Z,7.10
2023-03-27T09:30:40.286Z,7.10
2023-03-27T09:33:28.892Z,7.10
2023-03-27T09:35:59.747Z,7.10
2023-03-27T09:38:33.332Z,7.10
2023-03-27T09:41:08.795Z,7.10
2023-03-27T09:43:43.409Z,7.10
2023-03-27T09:46:14.019Z,7.20
2023-03-27T09:48:50.451Z,7.20
2023-03-27T09:51:45.704Z,7.30
2023-03-27T09:54:54.895Z,7.30
2023-03-27T09:57:41.912Z,7.30
2023-03-27T10:00:29.185Z,7.30
2023-03-27T10:03:03.869Z,7.30
2023-03-27T10:05:35.380Z,7.40
2023-03-27T10:08:29.228Z,7.40
2023-03-27T10:11:24.122Z,7.40
2023-03-27T10:13:59.788Z,7.40
2023-03-27T10:16:31.034Z,7.40
2023-03-27T10:19:04.429Z,7.40
2023-03-27T10:21:43.268Z,7.40
2023-03-27T10:24:23.005Z,7.40
2023-03-27T10:27:08.174Z,7.40
2023-03-27T10:29:41.192Z,7.50
2023-03-27T10:32:14.843Z,7.50
2023-03-27T10:34:58.437Z,7.60
2023-03-27T10:38:01.472Z,7.60
2023-03-27T10:40:34.239Z,7.60
2023-03-27T10:43:13.560Z,7.60
2023-03-27T10:45:51.501Z,7.60
2023-03-27T10:48:33.972Z,7.50
2023-03-27T10:51:07.073Z,7.50
2023-03-27T10:54:00.168Z,7.50
2023-03-27T10:56:52.620Z,7.50
2023-03-27T10:59:38.651Z,7.50
2023-03-27T11:02:19.655Z,7.60
2023-03-27T11:04:56.861Z,7.60
2023-03-27T11:07:34.021Z,7.30
2023-03-27T11:10:15.130Z,7.20
2023-03-27T11:12:52.594Z,7.10
2023-03-27T11:15:27.403Z,6.90
2023-03-27T11:18:01.939Z,6.90
2023-03-27T11:20:44.304Z,6.90
2023-03-27T11:23:32.210Z,6.90
2023-03-27T11:26:24.522Z,7.00
2023-03-27T11:28:59.148Z,7.00
2023-03-27T11:31:41.029Z,7.10
2023-03-27T11:34:28.788Z,7.20
2023-03-27T11:37:10.246Z,7.20
2023-03-27T11:39:48.419Z,7.20
2023-03-27T11:42:24.002Z,7.30
2023-03-27T11:44:52.869Z,7.30
2023-03-27T11:47:53.072Z,7.40
2023-03-27T11:50:32.619Z,7.40
2023-03-27T11:53:18.855Z,7.50
2023-03-27T11:56:23.764Z,7.60
2023-03-27T11:59:17.469Z,7.60
2023-03-27T12:02:03.028Z,7.70
2023-03-27T12:04:45.902Z,7.80
2023-03-27T12:07:48.075Z,7.80
2023-03-27T12:10:29.748Z,7.90
2023-03-27T12:13:41.227Z,7.90
2023-03-27T12:16:42.343Z,8.00
2023-03-27T12:19:38.765Z,8.00
2023-03-27T12:22:35.809Z,8.00
2023-03-27T12:25:39.880Z,8.10
2023-03-27T12:28:49.878Z,8.10
2023-03-27T12:31:54.084Z,8.10
2023-03-27T12:34:37.961Z,8.10
2023-03-27T12:37:10.934Z,8.10
2023-03-27T12:39:50.787Z,8.10
2023-03-27T12:42:43.726Z,8.10
2023-03-27T12:45:18.329Z,8.00
2023-03-27T12:48:20.703Z,8.10
2023-03-27T12:50:58.610Z,8.00
2023-03-27T12:53:54.988Z,8.10
2023-03-27T12:56:33.489Z,8.00
2023-03-27T12:59:05.599Z,8.10
2023-03-27T13:02:24.150Z,8.10
2023-03-27T13:05:29.524Z,8.10
2023-03-27T13:08:18.624Z,8.10
2023-03-27T13:11:21.424Z,8.10
2023-03-27T13:14:30.119Z,8.00
2023-03-27T13:17:17.410Z,8.00
2023-03-27T13:19:54.983Z,8.00
2023-03-27T13:22:39.550Z,7.90
2023-03-27T13:25:31.702Z,8.00
2023-03-27T13:28:27.395Z,8.00
2023-03-27T13:31:09.370Z,8.00
2023-03-27T13:34:08.529Z,8.10
2023-03-27T13:36:36.989Z,8.10
2023-03-27T13:39:21.277Z,8.20
2023-03-27T13:42:12.927Z,8.20
2023-03-27T13:45:02.052Z,8.30
2023-03-27T13:48:17.601Z,8.20
2023-03-27T13:51:15.281Z,8.20
2023-03-27T13:54:08.503Z,8.20
2023-03-27T13:57:01.874Z,8.10
2023-03-27T14:00:16.204Z,8.00
2023-03-27T14:03:26.710Z,7.90
2023-03-27T14:06:15.670Z,7.70
2023-03-27T14:08:58.447Z,7.50
2023-03-27T14:12:09.723Z,7.40
2023-03-27T14:15:23.091Z,7.30
2023-03-27T14:18:39.879Z,7.40
2023-03-27T14:21:11.758Z,7.40
2023-03-27T14:23:50.725Z,7.50
2023-03-27T14:26:45.377Z,7.60
2023-03-27T14:29:17.793Z,7.70
2023-03-27T14:31:54.721Z,7.70
2023-03-27T14:34:47.156Z,7.80
2023-03-27T14:37:37.580Z,7.80
2023-03-27T14:40:23.178Z,7.80
2023-03-27T14:42:57.550Z,7.80
2023-03-27T14:45:29.866Z,7.90
2023-03-27T14:48:02.756Z,7.80
2023-03-27T14:50:42.688Z,7.90
2023-03-27T14:53:18.139Z,7.90
2023-03-27T14:56:14.320Z,8.00
2023-03-27T14:59:15.592Z,8.10
2023-03-27T15:01:52.494Z,8.20
2023-03-27T15:04:21.242Z,8.30
2023-03-27T15:06:56.013Z,8.30
2023-03-27T15:09:44.832Z,8.40
2023-03-27T15:12:33.508Z,8.40
2023-03-27T15:15:04.406Z,8.40
2023-03-27T15:17:38.812Z,8.40
2023-03-27T15:20:11.197Z,8.30
2023-03-27T15:22:43.253Z,8.20
2023-03-27T15:25:17.376Z,8.10
2023-03-27T15:27:49.386Z,7.90
2023-03-27T15:30:26.502Z,7.80
2023-03-27T15:33:02.215Z,7.60
2023-03-27T15:35:34.720Z,7.60
2023-03-27T15:38:04.072Z,7.60
2023-03-27T15:40:36.922Z,7.60
2023-03-27T15:43:21.145Z,7.60
2023-03-27T15:46:14.737Z,7.60
2023-03-27T15:48:49.213Z,7.60
2023-03-27T15:51:30.556Z,7.60
2023-03-27T15:53:59.067Z,7.70
2023-03-27T15:56:30.361Z,7.70
2023-03-27T15:59:01.245Z,7.70
2023-03-27T16:01:32.828Z,7.70
2023-03-27T16:04:06.502Z,7.70
2023-03-27T16:06:39.689Z,7.70
2023-03-27T16:09:22.551Z,7.80
2023-03-27T16:11:52.937Z,7.80
2023-03-27T16:14:29.036Z,7.80
2023-03-27T16:17:32.528Z,7.80
2023-03-27T16:20:08.098Z,7.80
2023-03-27T16:22:38.111Z,7.80
2023-03-27T16:25:08.716Z,7.80
2023-03-27T16:27:39.517Z,7.90
2023-03-27T16:30:10.686Z,7.90
2023-03-27T16:32:39.112Z,7.90
2023-03-27T16:35:09.694Z,8.00
2023-03-27T16:37:41.252Z,8.00
2023-03-27T16:40:11.512Z,8.00
2023-03-27T16:42:40.056Z,8.10
2023-03-27T16:45:09.730Z,8.10
2023-03-27T16:47:38.182Z,8.10
2023-03-27T16:50:11.657Z,8.10
2023-03-27T16:52:40.463Z,8.10
2023-03-27T16:55:11.511Z,8.10
2023-03-27T16:57:43.724Z,8.20
2023-03-27T17:00:14.041Z,8.20
2023-03-27T17:02:44.343Z,8.10
2023-03-27T17:05:15.788Z,8.10
2023-03-27T17:07:44.929Z,8.00
2023-03-27T17:10:13.700Z,7.90
2023-03-27T17:12:42.252Z,7.90
2023-03-27T17:15:11.213Z,7.80
2023-03-27T17:17:39.523Z,7.80
2023-03-27T17:20:09.235Z,7.70
2023-03-27T17:22:39.205Z,7.70
2023-03-27T17:25:09.918Z,7.60
2023-03-27T17:27:38.642Z,7.60
2023-03-27T17:30:08.299Z,7.60
2023-03-27T17:32:36.995Z,7.50
2023-03-27T17:35:05.798Z,7.50
2023-03-27T17:37:36.118Z,7.50
2023-03-27T17:40:09.743Z,7.60
2023-03-27T17:42:38.447Z,7.60
2023-03-27T17:45:07.616Z,7.60
2023-03-27T17:47:36.325Z,7.60
2023-03-27T17:50:05.341Z,7.60
2023-03-27T17:52:33.911Z,7.70
2023-03-27T17:55:02.320Z,7.60
2023-03-27T17:57:33.227Z,7.60
2023-03-27T18:00:06.656Z,7.60
2023-03-27T18:02:40.635Z,7.50
2023-03-27T18:05:09.634Z,7.50
2023-03-27T18:07:37.968Z,7.50
2023-03-27T18:10:10.230Z,7.60
2023-03-27T18:12:40.244Z,7.50
2023-03-27T18:15:09.635Z,7.80
2023-03-27T18:17:38.549Z,7.60
2023-03-27T18:20:10.163Z,7.60
2023-03-27T18:22:39.197Z,7.60
2023-03-27T18:25:10.197Z,7.60
2023-03-27T18:27:41.182Z,7.60
2023-03-27T18:30:12.385Z,7.60
2023-03-27T18:32:41.604Z,7.60
2023-03-27T18:35:12.920Z,7.60
2023-03-27T18:37:42.183Z,7.60
2023-03-27T18:40:13.554Z,7.60
2023-03-27T18:42:44.903Z,7.60
2023-03-27T18:45:14.756Z,7.60
2023-03-27T18:47:43.949Z,7.60
2023-03-27T18:50:14.247Z,7.60
2023-03-27T18:52:43.087Z,7.60
2023-03-27T18:55:13.028Z,7.60
2023-03-27T18:57:42.936Z,7.70
2023-03-27T19:00:18.225Z,7.60
2023-03-27T19:02:46.984Z,7.70
2023-03-27T19:05:16.266Z,7.60
2023-03-27T19:07:45.366Z,7.70
2023-03-27T19:10:14.105Z,7.70
2023-03-27T19:12:49.714Z,7.70
2023-03-27T19:15:53.474Z,7.70
2023-03-27T19:18:55.658Z,7.70
2023-03-27T19:21:42.360Z,7.60
2023-03-27T19:24:19.765Z,7.60
2023-03-27T19:26:48.856Z,7.60
2023-03-27T19:29:18.635Z,7.60
2023-03-27T19:31:47.056Z,7.60
2023-03-27T19:34:15.611Z,7.60
2023-03-27T19:36:44.314Z,7.60
2023-03-27T19:39:12.937Z,7.60
2023-03-27T19:41:44.237Z,7.50
2023-03-27T19:44:14.251Z,7.50
2023-03-27T19:46:45.511Z,7.50
2023-03-27T19:49:16.264Z,7.80
2023-03-27T19:52:09.307Z,7.50
2023-03-27T19:54:37.720Z,7.50
2023-03-27T19:57:06.918Z,7.40
2023-03-27T19:59:35.470Z,7.40
2023-03-27T20:02:05.691Z,7.40
2023-03-27T20:04:34.083Z,7.40
2023-03-27T20:07:03.003Z,7.30
2023-03-27T20:09:31.413Z,7.40
2023-03-27T20:11:59.960Z,7.30
2023-03-27T20:14:30.551Z,7.40
2023-03-27T20:16:59.217Z,7.30
2023-03-27T20:19:30.742Z,7.30
2023-03-27T20:22:01.605Z,7.30
2023-03-27T20:24:30.122Z,7.30
2023-03-27T20:27:02.170Z,7.30
2023-03-27T20:29:30.661Z,7.30
2023-03-27T20:31:59.184Z,7.30
2023-03-27T20:34:29.140Z,7.30
2023-03-27T20:36:59.016Z,7.30
2023-03-27T20:39:46.807Z,7.30
2023-03-27T20:42:17.340Z,7.30
2023-03-27T20:44:46.603Z,7.30
2023-03-27T20:47:19.077Z,7.30
2023-03-27T20:49:50.262Z,7.30
2023-03-27T20:52:19.773Z,7.30
2023-03-27T20:54:48.644Z,7.30
2023-03-27T20:57:19.418Z,7.30
2023-03-27T20:59:48.339Z,7.30
2023-03-27T21:02:19.304Z,7.30
2023-03-27T21:04:49.116Z,7.20
2023-03-27T21:07:17.837Z,7.20
2023-03-27T21:09:47.731Z,7.20
2023-03-27T21:12:16.239Z,7.20
2023-03-27T21:14:44.575Z,7.20
2023-03-27T21:17:13.773Z,7.20
2023-03-27T21:19:44.969Z,7.20
2023-03-27T21:22:14.743Z,7.20
2023-03-27T21:24:43.284Z,7.20
2023-03-27T21:27:12.641Z,7.20
2023-03-27T21:29:40.955Z,7.20
2023-03-27T21:32:09.712Z,7.20
2023-03-27T21:34:38.133Z,7.20
2023-03-27T21:37:06.434Z,7.20
2023-03-27T21:39:36.224Z,7.10
2023-03-27T21:42:04.697Z,7.20
2023-03-27T21:44:33.083Z,7.20
2023-03-27T21:47:01.576Z,7.20
2023-03-27T21:49:30.098Z,7.20
2023-03-27T21:51:58.474Z,7.20
2023-03-27T21:54:27.445Z,7.10
2023-03-27T21:56:57.321Z,7.10
2023-03-27T21:59:27.312Z,7.10
2023-03-27T22:01:55.697Z,7.10
2023-03-27T22:04:24.559Z,7.10
2023-03-27T22:06:53.037Z,7.10
2023-03-27T22:09:21.418Z,7.10
2023-03-27T22:11:49.993Z,7.10
2023-03-27T22:14:19.770Z,7.00
2023-03-27T22:16:48.364Z,7.00
2023-03-27T22:19:16.739Z,7.00
2023-03-27T22:21:45.097Z,7.00
2023-03-27T22:24:13.710Z,7.00
2023-03-27T22:26:42.377Z,7.00
2023-03-27T22:29:10.887Z,6.90
2023-03-27T22:31:40.873Z,7.20
2023-03-27T22:34:09.331Z,7.10
2023-03-27T22:36:37.636Z,6.90
2023-03-27T22:39:06.287Z,6.90
2023-03-27T22:41:34.600Z,6.90
2023-03-27T22:44:03.052Z,6.90
2023-03-27T22:46:31.347Z,6.90
2023-03-27T22:49:04.920Z,6.90
2023-03-27T22:51:33.909Z,6.90
2023-03-27T22:54:02.263Z,6.90
2023-03-27T22:56:30.525Z,6.90
2023-03-27T22:58:58.821Z,6.90
2023-03-27T23:01:27.306Z,6.90
2023-03-27T23:03:55.875Z,6.90
2023-03-27T23:06:25.866Z,6.90
2023-03-27T23:08:54.273Z,6.90
2023-03-27T23:11:24.003Z,6.90
2023-03-27T23:13:52.281Z,6.90
2023-03-27T23:16:20.645Z,6.90
2023-03-27T23:18:48.969Z,6.90
2023-03-27T23:21:18.030Z,6.90
2023-03-27T23:23:47.968Z,6.90
2023-03-27T23:26:18.134Z,6.90
2023-03-27T23:28:46.771Z,6.90
2023-03-27T23:31:16.953Z,6.80
2023-03-27T23:33:47.725Z,6.90
2023-03-27T23:36:18.716Z,6.90
2023-03-27T23:38:48.714Z,6.90
2023-03-27T23:41:17.810Z,6.90
2023-03-27T23:43:46.597Z,6.90
2023-03-27T23:46:15.879Z,6.90
2023-03-27T23:48:45.171Z,6.90
2023-03-27T23:51:15.542Z,6.80
2023-03-27T23:53:43.998Z,6.80
2023-03-27T23:56:13.809Z,6.80
2023-03-27T23:58:42.128Z,6.80
